sensor_id;sensor_type;location;lat;lon;timestamp;P1;durP1;ratioP1;P2;durP2;ratioP2
60831;SDS011;46665;51.558;-0.448;2022-11-13T00:02:15;17.05;;;7.03;;
60831;SDS011;46665;51.558;-0.448;2022-11-13T00:04:59;17.90;;;8.57;;
60831;SDS011;46665;51.558;-0.448;2022-11-13T00:07:43;14.95;;;7.45;;
60831;SDS011;46665;51.558;-0.448;2022-11-13T00:10:27;12.65;;;7.28;;
60831;SDS011;46665;51.558;-0.448;2022-11-13T00:13:11;11.35;;;7.15;;
60831;SDS011;46665;51.558;-0.448;2022-11-13T00:15:58;20.20;;;7.10;;
60831;SDS011;46665;51.558;-0.448;2022-11-13T00:18:44;11.35;;;7.60;;
60831;SDS011;46665;51.558;-0.448;2022-11-13T00:21:28;16.00;;;7.95;;
60831;SDS011;46665;51.558;-0.448;2022-11-13T00:24:13;15.07;;;8.35;;
60831;SDS011;46665;51.558;-0.448;2022-11-13T00:26:56;9.75;;;6.30;;
60831;SDS011;46665;51.558;-0.448;2022-11-13T00:29:40;12.70;;;6.95;;
60831;SDS011;46665;51.558;-0.448;2022-11-13T00:32:24;13.23;;;6.78;;
60831;SDS011;46665;51.558;-0.448;2022-11-13T00:35:09;15.98;;;8.05;;
60831;SDS011;46665;51.558;-0.448;2022-11-13T00:37:53;14.10;;;7.28;;
60831;SDS011;46665;51.558;-0.448;2022-11-13T00:40:37;10.98;;;6.47;;
60831;SDS011;46665;51.558;-0.448;2022-11-13T00:43:21;15.13;;;8.45;;
60831;SDS011;46665;51.558;-0.448;2022-11-13T00:46:05;14.35;;;6.85;;
60831;SDS011;46665;51.558;-0.448;2022-11-13T00:48:50;16.17;;;6.43;;
60831;SDS011;46665;51.558;-0.448;2022-11-13T00:51:34;19.42;;;7.72;;
60831;SDS011;46665;51.558;-0.448;2022-11-13T00:54:18;9.45;;;7.15;;
60831;SDS011;46665;51.558;-0.448;2022-11-13T00:57:02;21.70;;;7.93;;
60831;SDS011;46665;51.558;-0.448;2022-11-13T00:59:46;12.73;;;5.78;;
60831;SDS011;46665;51.558;-0.448;2022-11-13T01:02:30;18.55;;;7.18;;
60831;SDS011;46665;51.558;-0.448;2022-11-13T01:05:14;14.45;;;7.05;;
60831;SDS011;46665;51.558;-0.448;2022-11-13T01:07:58;14.90;;;7.28;;
60831;SDS011;46665;51.558;-0.448;2022-11-13T01:10:43;13.20;;;6.75;;
60831;SDS011;46665;51.558;-0.448;2022-11-13T01:13:29;12.35;;;8.07;;
60831;SDS011;46665;51.558;-0.448;2022-11-13T01:16:13;19.17;;;7.50;;
60831;SDS011;46665;51.558;-0.448;2022-11-13T01:18:58;10.13;;;6.57;;
60831;SDS011;46665;51.558;-0.448;2022-11-13T01:21:42;9.75;;;6.25;;
60831;SDS011;46665;51.558;-0.448;2022-11-13T01:24:26;14.18;;;7.68;;
60831;SDS011;46665;51.558;-0.448;2022-11-13T01:27:10;14.55;;;7.65;;
60831;SDS011;46665;51.558;-0.448;2022-11-13T01:29:55;16.25;;;7.40;;
60831;SDS011;46665;51.558;-0.448;2022-11-13T01:32:39;14.90;;;7.22;;
60831;SDS011;46665;51.558;-0.448;2022-11-13T01:35:23;15.00;;;7.25;;
60831;SDS011;46665;51.558;-0.448;2022-11-13T01:38:07;11.70;;;7.45;;
60831;SDS011;46665;51.558;-0.448;2022-11-13T01:40:51;12.45;;;6.38;;
60831;SDS011;46665;51.558;-0.448;2022-11-13T01:43:36;17.17;;;6.70;;
60831;SDS011;46665;51.558;-0.448;2022-11-13T01:54:42;10.00;;;5.17;;
60831;SDS011;46665;51.558;-0.448;2022-11-13T01:57:30;13.73;;;6.63;;
60831;SDS011;46665;51.558;-0.448;2022-11-13T02:00:14;10.38;;;6.03;;
60831;SDS011;46665;51.558;-0.448;2022-11-13T02:02:59;21.25;;;7.65;;
60831;SDS011;46665;51.558;-0.448;2022-11-13T02:05:44;10.15;;;5.97;;
60831;SDS011;46665;51.558;-0.448;2022-11-13T02:08:28;13.50;;;6.15;;
60831;SDS011;46665;51.558;-0.448;2022-11-13T02:11:13;11.32;;;6.15;;
60831;SDS011;46665;51.558;-0.448;2022-11-13T02:13:57;14.88;;;7.63;;
60831;SDS011;46665;51.558;-0.448;2022-11-13T02:16:43;11.77;;;6.82;;
60831;SDS011;46665;51.558;-0.448;2022-11-13T02:19:32;15.77;;;6.20;;
60831;SDS011;46665;51.558;-0.448;2022-11-13T02:22:22;15.65;;;6.53;;
60831;SDS011;46665;51.558;-0.448;2022-11-13T02:25:14;11.93;;;6.95;;
60831;SDS011;46665;51.558;-0.448;2022-11-13T02:27:59;12.93;;;6.68;;
60831;SDS011;46665;51.558;-0.448;2022-11-13T02:30:44;10.32;;;5.80;;
60831;SDS011;46665;51.558;-0.448;2022-11-13T02:33:29;9.93;;;6.20;;
60831;SDS011;46665;51.558;-0.448;2022-11-13T02:36:15;11.73;;;6.15;;
60831;SDS011;46665;51.558;-0.448;2022-11-13T02:39:01;11.95;;;5.72;;
60831;SDS011;46665;51.558;-0.448;2022-11-13T02:41:49;14.40;;;7.43;;
60831;SDS011;46665;51.558;-0.448;2022-11-13T02:44:33;12.73;;;6.45;;
60831;SDS011;46665;51.558;-0.448;2022-11-13T02:47:17;15.52;;;6.75;;
60831;SDS011;46665;51.558;-0.448;2022-11-13T02:50:01;15.60;;;6.70;;
60831;SDS011;46665;51.558;-0.448;2022-11-13T02:52:45;13.57;;;6.45;;
60831;SDS011;46665;51.558;-0.448;2022-11-13T02:55:29;12.45;;;6.90;;
60831;SDS011;46665;51.558;-0.448;2022-11-13T02:58:13;8.02;;;5.22;;
60831;SDS011;46665;51.558;-0.448;2022-11-13T03:00:59;12.38;;;6.05;;
60831;SDS011;46665;51.558;-0.448;2022-11-13T03:03:45;10.95;;;5.63;;
60831;SDS011;46665;51.558;-0.448;2022-11-13T03:06:29;14.57;;;5.47;;
60831;SDS011;46665;51.558;-0.448;2022-11-13T03:09:13;11.05;;;5.75;;
60831;SDS011;46665;51.558;-0.448;2022-11-13T03:11:57;13.80;;;7.13;;
60831;SDS011;46665;51.558;-0.448;2022-11-13T03:14:40;11.93;;;6.32;;
60831;SDS011;46665;51.558;-0.448;2022-11-13T03:17:24;13.32;;;6.63;;
60831;SDS011;46665;51.558;-0.448;2022-11-13T03:20:08;11.95;;;5.75;;
60831;SDS011;46665;51.558;-0.448;2022-11-13T03:22:52;24.17;;;7.03;;
60831;SDS011;46665;51.558;-0.448;2022-11-13T03:25:36;9.88;;;6.22;;
60831;SDS011;46665;51.558;-0.448;2022-11-13T03:28:20;17.05;;;6.53;;
60831;SDS011;46665;51.558;-0.448;2022-11-13T03:31:04;10.20;;;5.28;;
60831;SDS011;46665;51.558;-0.448;2022-11-13T03:33:51;11.35;;;6.60;;
60831;SDS011;46665;51.558;-0.448;2022-11-13T03:36:35;8.50;;;6.13;;
60831;SDS011;46665;51.558;-0.448;2022-11-13T03:39:19;12.52;;;5.93;;
60831;SDS011;46665;51.558;-0.448;2022-11-13T03:42:03;11.23;;;5.82;;
60831;SDS011;46665;51.558;-0.448;2022-11-13T03:44:47;10.93;;;6.07;;
60831;SDS011;46665;51.558;-0.448;2022-11-13T03:47:31;13.95;;;5.93;;
60831;SDS011;46665;51.558;-0.448;2022-11-13T03:50:15;14.90;;;6.85;;
60831;SDS011;46665;51.558;-0.448;2022-11-13T03:52:59;6.88;;;4.72;;
60831;SDS011;46665;51.558;-0.448;2022-11-13T03:55:43;8.77;;;6.15;;
60831;SDS011;46665;51.558;-0.448;2022-11-13T03:58:27;9.05;;;5.68;;
60831;SDS011;46665;51.558;-0.448;2022-11-13T04:01:11;14.85;;;6.82;;
60831;SDS011;46665;51.558;-0.448;2022-11-13T04:03:55;10.55;;;5.90;;
60831;SDS011;46665;51.558;-0.448;2022-11-13T04:06:39;11.20;;;6.32;;
60831;SDS011;46665;51.558;-0.448;2022-11-13T04:09:24;12.57;;;5.50;;
60831;SDS011;46665;51.558;-0.448;2022-11-13T04:12:08;8.23;;;5.38;;
60831;SDS011;46665;51.558;-0.448;2022-11-13T04:14:52;10.63;;;5.40;;
60831;SDS011;46665;51.558;-0.448;2022-11-13T04:17:36;16.25;;;5.95;;
60831;SDS011;46665;51.558;-0.448;2022-11-13T04:20:20;17.25;;;5.57;;
60831;SDS011;46665;51.558;-0.448;2022-11-13T04:23:04;15.73;;;7.30;;
60831;SDS011;46665;51.558;-0.448;2022-11-13T04:25:52;12.15;;;5.65;;
60831;SDS011;46665;51.558;-0.448;2022-11-13T04:28:36;9.48;;;6.25;;
60831;SDS011;46665;51.558;-0.448;2022-11-13T04:31:20;11.00;;;5.88;;
60831;SDS011;46665;51.558;-0.448;2022-11-13T04:34:04;19.45;;;6.55;;
60831;SDS011;46665;51.558;-0.448;2022-11-13T04:36:48;18.35;;;7.45;;
60831;SDS011;46665;51.558;-0.448;2022-11-13T04:39:32;12.60;;;6.57;;
60831;SDS011;46665;51.558;-0.448;2022-11-13T04:42:16;10.65;;;6.13;;
60831;SDS011;46665;51.558;-0.448;2022-11-13T04:45:19;14.68;;;6.28;;
60831;SDS011;46665;51.558;-0.448;2022-11-13T04:48:05;11.18;;;6.13;;
60831;SDS011;46665;51.558;-0.448;2022-11-13T04:50:49;11.50;;;6.57;;
60831;SDS011;46665;51.558;-0.448;2022-11-13T04:53:33;10.77;;;5.32;;
60831;SDS011;46665;51.558;-0.448;2022-11-13T04:56:17;10.30;;;5.85;;
60831;SDS011;46665;51.558;-0.448;2022-11-13T04:59:01;11.25;;;5.45;;
60831;SDS011;46665;51.558;-0.448;2022-11-13T05:01:45;9.55;;;5.20;;
60831;SDS011;46665;51.558;-0.448;2022-11-13T05:04:30;10.07;;;5.82;;
60831;SDS011;46665;51.558;-0.448;2022-11-13T05:07:14;10.68;;;5.30;;
60831;SDS011;46665;51.558;-0.448;2022-11-13T05:09:58;13.23;;;6.30;;
60831;SDS011;46665;51.558;-0.448;2022-11-13T05:12:41;9.65;;;6.35;;
60831;SDS011;46665;51.558;-0.448;2022-11-13T05:15:25;9.13;;;5.68;;
60831;SDS011;46665;51.558;-0.448;2022-11-13T05:18:09;9.80;;;5.82;;
60831;SDS011;46665;51.558;-0.448;2022-11-13T05:20:53;6.90;;;4.88;;
60831;SDS011;46665;51.558;-0.448;2022-11-13T05:23:37;5.75;;;4.72;;
60831;SDS011;46665;51.558;-0.448;2022-11-13T05:26:22;9.02;;;5.10;;
60831;SDS011;46665;51.558;-0.448;2022-11-13T05:29:06;11.73;;;5.20;;
60831;SDS011;46665;51.558;-0.448;2022-11-13T05:31:49;22.40;;;6.30;;
60831;SDS011;46665;51.558;-0.448;2022-11-13T05:34:33;9.50;;;4.90;;
60831;SDS011;46665;51.558;-0.448;2022-11-13T05:37:17;9.25;;;5.13;;
60831;SDS011;46665;51.558;-0.448;2022-11-13T05:40:01;12.75;;;6.15;;
60831;SDS011;46665;51.558;-0.448;2022-11-13T05:42:46;6.57;;;4.93;;
60831;SDS011;46665;51.558;-0.448;2022-11-13T05:45:30;11.07;;;5.60;;
60831;SDS011;46665;51.558;-0.448;2022-11-13T05:48:14;5.78;;;4.28;;
60831;SDS011;46665;51.558;-0.448;2022-11-13T05:51:02;11.73;;;5.00;;
60831;SDS011;46665;51.558;-0.448;2022-11-13T05:53:51;8.93;;;5.10;;
60831;SDS011;46665;51.558;-0.448;2022-11-13T05:56:37;5.30;;;4.22;;
60831;SDS011;46665;51.558;-0.448;2022-11-13T05:59:22;10.38;;;5.35;;
60831;SDS011;46665;51.558;-0.448;2022-11-13T06:02:06;6.72;;;4.32;;
60831;SDS011;46665;51.558;-0.448;2022-11-13T06:04:50;9.48;;;5.30;;
60831;SDS011;46665;51.558;-0.448;2022-11-13T06:07:34;10.57;;;5.15;;
60831;SDS011;46665;51.558;-0.448;2022-11-13T06:10:18;11.00;;;5.80;;
60831;SDS011;46665;51.558;-0.448;2022-11-13T06:13:02;10.77;;;5.75;;
60831;SDS011;46665;51.558;-0.448;2022-11-13T06:15:46;12.70;;;6.20;;
60831;SDS011;46665;51.558;-0.448;2022-11-13T06:18:30;11.15;;;6.82;;
60831;SDS011;46665;51.558;-0.448;2022-11-13T06:21:16;15.15;;;6.35;;
60831;SDS011;46665;51.558;-0.448;2022-11-13T06:24:01;15.18;;;7.10;;
60831;SDS011;46665;51.558;-0.448;2022-11-13T06:26:45;12.13;;;6.15;;
60831;SDS011;46665;51.558;-0.448;2022-11-13T06:29:29;15.73;;;6.75;;
60831;SDS011;46665;51.558;-0.448;2022-11-13T06:32:13;10.40;;;5.97;;
60831;SDS011;46665;51.558;-0.448;2022-11-13T06:34:57;9.40;;;5.50;;
60831;SDS011;46665;51.558;-0.448;2022-11-13T06:37:41;8.90;;;6.43;;
60831;SDS011;46665;51.558;-0.448;2022-11-13T06:40:25;15.35;;;6.90;;
60831;SDS011;46665;51.558;-0.448;2022-11-13T06:43:09;11.55;;;6.47;;
60831;SDS011;46665;51.558;-0.448;2022-11-13T06:45:54;13.70;;;6.30;;
60831;SDS011;46665;51.558;-0.448;2022-11-13T06:48:39;12.30;;;5.95;;
60831;SDS011;46665;51.558;-0.448;2022-11-13T06:51:25;14.63;;;7.07;;
60831;SDS011;46665;51.558;-0.448;2022-11-13T06:54:10;13.77;;;5.97;;
60831;SDS011;46665;51.558;-0.448;2022-11-13T06:56:54;16.70;;;7.93;;
60831;SDS011;46665;51.558;-0.448;2022-11-13T06:59:38;13.00;;;6.25;;
60831;SDS011;46665;51.558;-0.448;2022-11-13T07:02:22;16.85;;;6.88;;
60831;SDS011;46665;51.558;-0.448;2022-11-13T07:05:06;11.43;;;6.28;;
60831;SDS011;46665;51.558;-0.448;2022-11-13T07:07:51;14.18;;;7.57;;
60831;SDS011;46665;51.558;-0.448;2022-11-13T07:10:35;13.73;;;6.75;;
60831;SDS011;46665;51.558;-0.448;2022-11-13T07:13:19;13.98;;;6.75;;
60831;SDS011;46665;51.558;-0.448;2022-11-13T07:16:04;11.40;;;6.60;;
60831;SDS011;46665;51.558;-0.448;2022-11-13T07:18:52;13.57;;;7.43;;
60831;SDS011;46665;51.558;-0.448;2022-11-13T07:21:37;13.95;;;6.05;;
60831;SDS011;46665;51.558;-0.448;2022-11-13T07:24:20;14.50;;;6.50;;
60831;SDS011;46665;51.558;-0.448;2022-11-13T07:27:05;13.20;;;7.10;;
60831;SDS011;46665;51.558;-0.448;2022-11-13T07:29:48;10.40;;;7.07;;
60831;SDS011;46665;51.558;-0.448;2022-11-13T07:32:32;12.10;;;6.95;;
60831;SDS011;46665;51.558;-0.448;2022-11-13T07:35:16;16.00;;;7.47;;
60831;SDS011;46665;51.558;-0.448;2022-11-13T07:38:01;20.67;;;8.30;;
60831;SDS011;46665;51.558;-0.448;2022-11-13T07:40:45;17.23;;;6.75;;
60831;SDS011;46665;51.558;-0.448;2022-11-13T07:43:29;17.88;;;7.68;;
60831;SDS011;46665;51.558;-0.448;2022-11-13T07:46:13;14.68;;;6.43;;
60831;SDS011;46665;51.558;-0.448;2022-11-13T07:48:57;13.93;;;6.10;;
60831;SDS011;46665;51.558;-0.448;2022-11-13T07:51:41;11.52;;;5.53;;
60831;SDS011;46665;51.558;-0.448;2022-11-13T07:54:25;21.05;;;7.30;;
60831;SDS011;46665;51.558;-0.448;2022-11-13T07:57:09;10.60;;;6.20;;
60831;SDS011;46665;51.558;-0.448;2022-11-13T07:59:53;18.38;;;8.43;;
60831;SDS011;46665;51.558;-0.448;2022-11-13T08:02:37;11.50;;;6.03;;
60831;SDS011;46665;51.558;-0.448;2022-11-13T08:05:21;13.57;;;7.20;;
60831;SDS011;46665;51.558;-0.448;2022-11-13T08:08:05;15.63;;;7.20;;
60831;SDS011;46665;51.558;-0.448;2022-11-13T08:10:50;15.25;;;6.88;;
60831;SDS011;46665;51.558;-0.448;2022-11-13T08:13:34;13.73;;;6.72;;
60831;SDS011;46665;51.558;-0.448;2022-11-13T08:16:19;12.98;;;6.85;;
60831;SDS011;46665;51.558;-0.448;2022-11-13T08:19:03;15.00;;;6.80;;
60831;SDS011;46665;51.558;-0.448;2022-11-13T08:21:47;13.63;;;6.82;;
60831;SDS011;46665;51.558;-0.448;2022-11-13T08:24:31;15.18;;;6.72;;
60831;SDS011;46665;51.558;-0.448;2022-11-13T08:27:15;20.95;;;7.60;;
60831;SDS011;46665;51.558;-0.448;2022-11-13T08:29:59;21.10;;;6.30;;
60831;SDS011;46665;51.558;-0.448;2022-11-13T08:32:43;16.67;;;7.43;;
60831;SDS011;46665;51.558;-0.448;2022-11-13T08:35:27;15.52;;;7.55;;
60831;SDS011;46665;51.558;-0.448;2022-11-13T08:38:12;17.10;;;6.07;;
60831;SDS011;46665;51.558;-0.448;2022-11-13T08:40:56;13.30;;;6.03;;
60831;SDS011;46665;51.558;-0.448;2022-11-13T08:43:42;20.50;;;6.18;;
60831;SDS011;46665;51.558;-0.448;2022-11-13T08:46:26;13.45;;;6.65;;
60831;SDS011;46665;51.558;-0.448;2022-11-13T08:49:10;15.55;;;6.75;;
60831;SDS011;46665;51.558;-0.448;2022-11-13T08:51:54;9.18;;;4.72;;
60831;SDS011;46665;51.558;-0.448;2022-11-13T08:54:38;14.65;;;6.25;;
60831;SDS011;46665;51.558;-0.448;2022-11-13T08:57:22;15.55;;;6.72;;
60831;SDS011;46665;51.558;-0.448;2022-11-13T09:00:06;16.17;;;5.82;;
60831;SDS011;46665;51.558;-0.448;2022-11-13T09:02:54;9.38;;;5.85;;
60831;SDS011;46665;51.558;-0.448;2022-11-13T09:05:39;11.77;;;5.78;;
60831;SDS011;46665;51.558;-0.448;2022-11-13T09:08:23;12.07;;;5.80;;
60831;SDS011;46665;51.558;-0.448;2022-11-13T09:11:07;12.07;;;6.47;;
60831;SDS011;46665;51.558;-0.448;2022-11-13T09:13:51;10.15;;;5.35;;
60831;SDS011;46665;51.558;-0.448;2022-11-13T09:16:35;8.32;;;5.43;;
60831;SDS011;46665;51.558;-0.448;2022-11-13T09:19:19;14.88;;;7.13;;
60831;SDS011;46665;51.558;-0.448;2022-11-13T09:22:03;13.63;;;7.22;;
60831;SDS011;46665;51.558;-0.448;2022-11-13T09:24:47;14.48;;;6.97;;
60831;SDS011;46665;51.558;-0.448;2022-11-13T09:27:31;17.75;;;6.97;;
60831;SDS011;46665;51.558;-0.448;2022-11-13T09:30:15;18.10;;;6.57;;
60831;SDS011;46665;51.558;-0.448;2022-11-13T09:32:59;12.18;;;6.82;;
60831;SDS011;46665;51.558;-0.448;2022-11-13T09:35:43;14.52;;;6.07;;
60831;SDS011;46665;51.558;-0.448;2022-11-13T09:38:27;16.83;;;7.20;;
60831;SDS011;46665;51.558;-0.448;2022-11-13T09:41:20;12.13;;;6.78;;
60831;SDS011;46665;51.558;-0.448;2022-11-13T09:44:42;19.15;;;7.55;;
60831;SDS011;46665;51.558;-0.448;2022-11-13T09:47:23;14.38;;;6.53;;
60831;SDS011;46665;51.558;-0.448;2022-11-13T09:50:12;18.20;;;7.25;;
60831;SDS011;46665;51.558;-0.448;2022-11-13T09:53:02;18.67;;;7.63;;
60831;SDS011;46665;51.558;-0.448;2022-11-13T09:55:56;19.27;;;6.63;;
60831;SDS011;46665;51.558;-0.448;2022-11-13T09:58:56;14.35;;;7.55;;
60831;SDS011;46665;51.558;-0.448;2022-11-13T10:01:47;14.52;;;7.25;;
60831;SDS011;46665;51.558;-0.448;2022-11-13T10:11:08;16.23;;;5.47;;
60831;SDS011;46665;51.558;-0.448;2022-11-13T10:24:18;13.63;;;6.15;;
60831;SDS011;46665;51.558;-0.448;2022-11-13T10:27:08;14.55;;;6.82;;
60831;SDS011;46665;51.558;-0.448;2022-11-13T10:29:56;16.50;;;6.43;;
60831;SDS011;46665;51.558;-0.448;2022-11-13T10:32:40;10.35;;;5.38;;
60831;SDS011;46665;51.558;-0.448;2022-11-13T10:38:30;6.95;;;4.93;;
60831;SDS011;46665;51.558;-0.448;2022-11-13T10:41:21;7.18;;;3.97;;
60831;SDS011;46665;51.558;-0.448;2022-11-13T10:44:14;6.13;;;3.80;;
60831;SDS011;46665;51.558;-0.448;2022-11-13T10:50:08;9.73;;;4.35;;
60831;SDS011;46665;51.558;-0.448;2022-11-13T10:52:54;7.70;;;4.88;;
60831;SDS011;46665;51.558;-0.448;2022-11-13T10:55:40;5.13;;;3.67;;
60831;SDS011;46665;51.558;-0.448;2022-11-13T10:58:24;6.47;;;4.57;;
60831;SDS011;46665;51.558;-0.448;2022-11-13T11:01:42;4.72;;;4.00;;
60831;SDS011;46665;51.558;-0.448;2022-11-13T11:07:20;7.75;;;4.80;;
60831;SDS011;46665;51.558;-0.448;2022-11-13T11:10:18;14.55;;;7.15;;
60831;SDS011;46665;51.558;-0.448;2022-11-13T11:13:11;11.52;;;6.25;;
60831;SDS011;46665;51.558;-0.448;2022-11-13T11:16:06;13.77;;;7.57;;
60831;SDS011;46665;51.558;-0.448;2022-11-13T11:18:57;16.45;;;6.78;;
60831;SDS011;46665;51.558;-0.448;2022-11-13T11:21:47;11.23;;;6.30;;
60831;SDS011;46665;51.558;-0.448;2022-11-13T11:24:40;11.75;;;6.28;;
60831;SDS011;46665;51.558;-0.448;2022-11-13T11:27:35;12.15;;;6.32;;
60831;SDS011;46665;51.558;-0.448;2022-11-13T11:30:24;8.50;;;6.15;;
60831;SDS011;46665;51.558;-0.448;2022-11-13T11:48:13;15.45;;;6.32;;
60831;SDS011;46665;51.558;-0.448;2022-11-13T11:51:06;11.55;;;6.03;;
60831;SDS011;46665;51.558;-0.448;2022-11-13T11:54:20;13.13;;;6.25;;
60831;SDS011;46665;51.558;-0.448;2022-11-13T11:57:47;15.60;;;6.60;;
60831;SDS011;46665;51.558;-0.448;2022-11-13T12:00:36;10.27;;;5.65;;
60831;SDS011;46665;51.558;-0.448;2022-11-13T12:03:36;6.40;;;4.60;;
60831;SDS011;46665;51.558;-0.448;2022-11-13T12:09:41;9.40;;;5.78;;
60831;SDS011;46665;51.558;-0.448;2022-11-13T12:12:51;11.50;;;5.68;;
60831;SDS011;46665;51.558;-0.448;2022-11-13T12:18:58;6.18;;;4.22;;
60831;SDS011;46665;51.558;-0.448;2022-11-13T12:25:18;13.30;;;5.55;;
60831;SDS011;46665;51.558;-0.448;2022-11-13T12:28:16;7.82;;;4.70;;
60831;SDS011;46665;51.558;-0.448;2022-11-13T12:34:45;6.63;;;4.78;;
60831;SDS011;46665;51.558;-0.448;2022-11-13T12:37:45;6.57;;;4.78;;
60831;SDS011;46665;51.558;-0.448;2022-11-13T12:40:35;9.48;;;5.57;;
60831;SDS011;46665;51.558;-0.448;2022-11-13T12:46:37;15.25;;;5.13;;
60831;SDS011;46665;51.558;-0.448;2022-11-13T12:52:17;7.00;;;4.20;;
60831;SDS011;46665;51.558;-0.448;2022-11-13T12:55:05;7.32;;;4.72;;
60831;SDS011;46665;51.558;-0.448;2022-11-13T12:57:51;6.05;;;4.47;;
60831;SDS011;46665;51.558;-0.448;2022-11-13T13:00:37;12.55;;;4.63;;
60831;SDS011;46665;51.558;-0.448;2022-11-13T13:10:04;9.13;;;5.15;;
60831;SDS011;46665;51.558;-0.448;2022-11-13T13:15:57;6.57;;;4.30;;
60831;SDS011;46665;51.558;-0.448;2022-11-13T13:18:45;5.78;;;4.15;;
60831;SDS011;46665;51.558;-0.448;2022-11-13T13:21:37;9.20;;;5.03;;
60831;SDS011;46665;51.558;-0.448;2022-11-13T13:27:25;9.32;;;5.15;;
60831;SDS011;46665;51.558;-0.448;2022-11-13T13:30:19;9.57;;;5.10;;
60831;SDS011;46665;51.558;-0.448;2022-11-13T13:47:55;7.05;;;5.35;;
60831;SDS011;46665;51.558;-0.448;2022-11-13T13:50:43;6.60;;;4.78;;
60831;SDS011;46665;51.558;-0.448;2022-11-13T13:53:30;11.23;;;5.82;;
60831;SDS011;46665;51.558;-0.448;2022-11-13T13:56:17;12.45;;;6.22;;
60831;SDS011;46665;51.558;-0.448;2022-11-13T13:59:04;8.70;;;4.25;;
60831;SDS011;46665;51.558;-0.448;2022-11-13T14:01:58;8.30;;;5.57;;
60831;SDS011;46665;51.558;-0.448;2022-11-13T14:04:45;8.75;;;4.88;;
60831;SDS011;46665;51.558;-0.448;2022-11-13T14:07:31;8.30;;;5.30;;
60831;SDS011;46665;51.558;-0.448;2022-11-13T14:10:17;8.70;;;4.55;;
60831;SDS011;46665;51.558;-0.448;2022-11-13T14:13:03;6.40;;;5.20;;
60831;SDS011;46665;51.558;-0.448;2022-11-13T14:15:47;7.50;;;5.05;;
60831;SDS011;46665;51.558;-0.448;2022-11-13T14:18:31;10.25;;;5.22;;
60831;SDS011;46665;51.558;-0.448;2022-11-13T14:21:17;6.15;;;4.32;;
60831;SDS011;46665;51.558;-0.448;2022-11-13T14:24:05;9.80;;;5.38;;
60831;SDS011;46665;51.558;-0.448;2022-11-13T14:27:17;7.70;;;4.60;;
60831;SDS011;46665;51.558;-0.448;2022-11-13T14:30:18;6.80;;;5.07;;
60831;SDS011;46665;51.558;-0.448;2022-11-13T14:33:08;7.80;;;4.63;;
60831;SDS011;46665;51.558;-0.448;2022-11-13T14:35:54;6.18;;;5.20;;
60831;SDS011;46665;51.558;-0.448;2022-11-13T14:38:40;8.93;;;5.57;;
60831;SDS011;46665;51.558;-0.448;2022-11-13T14:41:34;7.15;;;4.75;;
60831;SDS011;46665;51.558;-0.448;2022-11-13T14:44:39;8.75;;;5.03;;
60831;SDS011;46665;51.558;-0.448;2022-11-13T14:47:25;7.38;;;4.72;;
60831;SDS011;46665;51.558;-0.448;2022-11-13T14:50:18;7.70;;;4.13;;
60831;SDS011;46665;51.558;-0.448;2022-11-13T14:53:05;5.93;;;4.97;;
60831;SDS011;46665;51.558;-0.448;2022-11-13T14:55:51;4.85;;;3.85;;
60831;SDS011;46665;51.558;-0.448;2022-11-13T14:58:37;7.63;;;4.63;;
60831;SDS011;46665;51.558;-0.448;2022-11-13T15:01:26;4.78;;;4.10;;
60831;SDS011;46665;51.558;-0.448;2022-11-13T15:04:10;7.03;;;4.57;;
60831;SDS011;46665;51.558;-0.448;2022-11-13T15:06:58;6.85;;;4.88;;
60831;SDS011;46665;51.558;-0.448;2022-11-13T15:09:43;5.25;;;4.18;;
60831;SDS011;46665;51.558;-0.448;2022-11-13T15:12:28;6.75;;;5.40;;
60831;SDS011;46665;51.558;-0.448;2022-11-13T15:15:12;6.72;;;4.72;;
60831;SDS011;46665;51.558;-0.448;2022-11-13T15:18:01;5.93;;;4.07;;
60831;SDS011;46665;51.558;-0.448;2022-11-13T15:20:45;8.63;;;3.75;;
60831;SDS011;46665;51.558;-0.448;2022-11-13T15:23:29;8.80;;;5.07;;
60831;SDS011;46665;51.558;-0.448;2022-11-13T15:26:13;7.97;;;5.07;;
60831;SDS011;46665;51.558;-0.448;2022-11-13T15:28:58;6.18;;;4.57;;
60831;SDS011;46665;51.558;-0.448;2022-11-13T15:31:50;5.07;;;4.20;;
60831;SDS011;46665;51.558;-0.448;2022-11-13T15:34:42;8.90;;;4.90;;
60831;SDS011;46665;51.558;-0.448;2022-11-13T15:37:27;6.05;;;4.57;;
60831;SDS011;46665;51.558;-0.448;2022-11-13T15:40:18;8.40;;;5.57;;
60831;SDS011;46665;51.558;-0.448;2022-11-13T15:43:04;5.57;;;3.85;;
60831;SDS011;46665;51.558;-0.448;2022-11-13T15:45:55;8.23;;;5.35;;
60831;SDS011;46665;51.558;-0.448;2022-11-13T15:48:42;10.05;;;5.63;;
60831;SDS011;46665;51.558;-0.448;2022-11-13T15:54:28;7.35;;;4.68;;
60831;SDS011;46665;51.558;-0.448;2022-11-13T15:57:19;4.85;;;3.95;;
60831;SDS011;46665;51.558;-0.448;2022-11-13T16:00:11;7.43;;;5.05;;
60831;SDS011;46665;51.558;-0.448;2022-11-13T16:02:56;8.00;;;4.95;;
60831;SDS011;46665;51.558;-0.448;2022-11-13T16:05:40;7.65;;;5.95;;
60831;SDS011;46665;51.558;-0.448;2022-11-13T16:08:25;7.07;;;4.85;;
60831;SDS011;46665;51.558;-0.448;2022-11-13T16:11:13;5.68;;;4.05;;
60831;SDS011;46665;51.558;-0.448;2022-11-13T16:13:58;7.68;;;5.00;;
60831;SDS011;46665;51.558;-0.448;2022-11-13T16:16:43;7.18;;;4.75;;
60831;SDS011;46665;51.558;-0.448;2022-11-13T16:19:27;5.63;;;4.20;;
60831;SDS011;46665;51.558;-0.448;2022-11-13T16:22:14;6.38;;;5.05;;
60831;SDS011;46665;51.558;-0.448;2022-11-13T16:25:04;11.15;;;5.85;;
60831;SDS011;46665;51.558;-0.448;2022-11-13T16:27:48;7.05;;;4.65;;
60831;SDS011;46665;51.558;-0.448;2022-11-13T16:30:33;6.78;;;5.03;;
60831;SDS011;46665;51.558;-0.448;2022-11-13T16:33:17;6.55;;;4.72;;
60831;SDS011;46665;51.558;-0.448;2022-11-13T16:36:01;8.05;;;5.30;;
60831;SDS011;46665;51.558;-0.448;2022-11-13T16:38:46;9.10;;;5.25;;
60831;SDS011;46665;51.558;-0.448;2022-11-13T16:41:33;6.38;;;5.15;;
60831;SDS011;46665;51.558;-0.448;2022-11-13T16:44:17;7.30;;;5.85;;
60831;SDS011;46665;51.558;-0.448;2022-11-13T16:47:01;11.55;;;5.80;;
60831;SDS011;46665;51.558;-0.448;2022-11-13T16:49:47;9.48;;;5.28;;
60831;SDS011;46665;51.558;-0.448;2022-11-13T16:52:31;8.63;;;6.10;;
60831;SDS011;46665;51.558;-0.448;2022-11-13T16:55:17;9.65;;;5.63;;
60831;SDS011;46665;51.558;-0.448;2022-11-13T16:58:01;13.00;;;5.65;;
60831;SDS011;46665;51.558;-0.448;2022-11-13T17:00:46;6.18;;;4.68;;
60831;SDS011;46665;51.558;-0.448;2022-11-13T17:03:30;8.48;;;4.43;;
60831;SDS011;46665;51.558;-0.448;2022-11-13T17:06:18;8.90;;;5.18;;
60831;SDS011;46665;51.558;-0.448;2022-11-13T17:09:09;4.82;;;4.32;;
60831;SDS011;46665;51.558;-0.448;2022-11-13T17:11:54;9.27;;;5.45;;
60831;SDS011;46665;51.558;-0.448;2022-11-13T17:14:38;8.10;;;5.18;;
60831;SDS011;46665;51.558;-0.448;2022-11-13T17:17:22;11.10;;;5.45;;
60831;SDS011;46665;51.558;-0.448;2022-11-13T17:20:06;7.05;;;5.05;;
60831;SDS011;46665;51.558;-0.448;2022-11-13T17:22:51;7.65;;;4.70;;
60831;SDS011;46665;51.558;-0.448;2022-11-13T17:25:35;14.98;;;5.32;;
60831;SDS011;46665;51.558;-0.448;2022-11-13T17:28:19;7.13;;;5.72;;
60831;SDS011;46665;51.558;-0.448;2022-11-13T17:31:04;11.32;;;5.35;;
60831;SDS011;46665;51.558;-0.448;2022-11-13T17:33:53;10.85;;;6.57;;
60831;SDS011;46665;51.558;-0.448;2022-11-13T17:36:37;9.80;;;5.88;;
60831;SDS011;46665;51.558;-0.448;2022-11-13T17:39:21;10.30;;;6.38;;
60831;SDS011;46665;51.558;-0.448;2022-11-13T17:42:05;8.80;;;6.43;;
60831;SDS011;46665;51.558;-0.448;2022-11-13T17:44:49;8.50;;;6.03;;
60831;SDS011;46665;51.558;-0.448;2022-11-13T17:47:33;12.13;;;6.57;;
60831;SDS011;46665;51.558;-0.448;2022-11-13T17:50:17;13.45;;;6.55;;
60831;SDS011;46665;51.558;-0.448;2022-11-13T17:53:01;12.75;;;6.80;;
60831;SDS011;46665;51.558;-0.448;2022-11-13T17:55:51;9.85;;;7.18;;
60831;SDS011;46665;51.558;-0.448;2022-11-13T17:58:39;13.45;;;7.95;;